Time;durP1;ratioP1;P1;durP2;ratioP2;P2;SDS_P1;SDS_P2;PMS_P1;PMS_P2;Temp;Humidity;BMP_temperature;BMP_pressure;BME280_temperature;BME280_humidity;BME280_pressure;Samples;Min_cycle;Max_cycle;Signal;HPM_P1;HPM_P2
2021/08/04 00:01:01;;;;;;;4.82;3.92;;;;;;;17.34;92.51;99141.63;5072589;28;20204;-73
2021/08/04 00:03:28;;;;;;;6.35;3.92;;;;;;;17.33;92.17;99138.03;5072104;28;20195;-72
2021/08/04 00:05:54;;;;;;;5.43;4.00;;;;;;;17.41;92.20;99135.47;5072666;28;20281;-71
2021/08/04 00:08:21;;;;;;;4.82;3.53;;;;;;;17.41;92.36;99140.03;5072682;28;20267;-73
2021/08/04 00:10:49;;;;;;;4.43;3.80;;;;;;;17.32;92.51;99138.19;5075346;28;20200;-73
2021/08/04 00:13:16;;;;;;;4.40;3.88;;;;;;;17.39;92.70;99137.47;5076207;28;20215;-72
2021/08/04 00:15:43;;;;;;;3.92;3.63;;;;;;;17.41;91.48;99130.03;5076017;28;20188;-72
2021/08/04 00:18:10;;;;;;;4.28;3.58;;;;;;;17.30;92.65;99139.19;5076262;28;20216;-72
2021/08/04 00:20:37;;;;;;;10.00;4.40;;;;;;;17.14;93.68;99132.59;5076547;28;20188;-72
2021/08/04 00:23:04;;;;;;;4.50;4.10;;;;;;;17.07;94.53;99130.44;5076064;28;20210;-72
2021/08/04 00:25:30;;;;;;;5.22;3.95;;;;;;;17.15;94.38;99129.72;5075837;28;20185;-72
2021/08/04 00:27:59;;;;;;;4.95;4.50;;;;;;;17.23;93.98;99135.34;5076177;28;20658;-72
2021/08/04 00:30:25;;;;;;;5.35;4.85;;;;;;;17.26;93.39;99135.03;5075455;28;20284;-73
2021/08/04 00:32:54;;;;;;;7.30;4.05;;;;;;;17.35;92.78;99141.47;5076176;28;20295;-72
2021/08/04 00:35:20;;;;;;;7.38;3.70;;;;;;;17.23;92.84;99132.59;5075829;28;20288;-73
2021/08/04 00:37:47;;;;;;;5.55;4.30;;;;;;;17.28;93.75;99135.75;5075819;28;20204;-72
2021/08/04 00:40:14;;;;;;;5.10;4.60;;;;;;;17.20;93.48;99132.03;5075969;28;20197;-72
2021/08/04 00:42:41;;;;;;;7.15;4.80;;;;;;;17.27;93.74;99133.16;5075734;28;20605;-72
2021/08/04 00:45:10;;;;;;;5.45;4.95;;;;;;;17.40;93.84;99125.56;5075568;28;20662;-72
2021/08/04 00:47:38;;;;;;;5.60;4.65;;;;;;;17.53;92.10;99133.44;5075840;28;20707;-72
2021/08/04 00:50:05;;;;;;;6.03;5.45;;;;;;;17.56;91.64;99132.28;5075300;28;20258;-71
2021/08/04 00:52:32;;;;;;;6.25;5.65;;;;;;;17.71;90.35;99126.25;5075529;28;20296;-72
2021/08/04 00:54:58;;;;;;;6.30;5.47;;;;;;;17.52;90.24;99129.00;5075368;28;20610;-72
2021/08/04 00:57:25;;;;;;;7.28;5.38;;;;;;;17.55;90.84;99126.00;5074880;28;20189;-72
2021/08/04 00:59:52;;;;;;;5.78;5.18;;;;;;;17.50;90.61;99122.84;5075748;28;20192;-72
2021/08/04 01:02:24;;;;;;;7.78;5.05;;;;;;;17.54;91.37;99135.16;5074818;28;20181;-73
2021/08/04 01:04:55;;;;;;;5.78;4.28;;;;;;;17.60;90.48;99128.28;5075300;28;20185;-73
2021/08/04 01:07:28;;;;;;;6.28;4.63;;;;;;;17.35;91.42;99133.31;5075666;28;20200;-73
2021/08/04 01:10:01;;;;;;;7.45;4.88;;;;;;;17.50;91.23;99128.28;5075574;28;20629;-72
2021/08/04 01:12:36;;;;;;;5.53;4.75;;;;;;;17.44;90.74;99124.28;5075043;28;20215;-72
2021/08/04 01:15:06;;;;;;;5.20;4.70;;;;;;;17.42;91.11;99126.28;5075498;28;20216;-72
2021/08/04 01:17:37;;;;;;;5.65;4.32;;;;;;;17.28;91.88;99116.72;5074766;28;20701;-72
2021/08/04 01:20:11;;;;;;;5.20;4.70;;;;;;;17.32;91.74;99119.13;5074797;28;20280;-72
2021/08/04 01:22:47;;;;;;;7.10;5.60;;;;;;;17.30;91.25;99122.00;5073526;28;20203;-72
2021/08/04 01:25:16;;;;;;;5.45;4.72;;;;;;;17.34;90.95;99122.56;5074846;28;20608;-72
2021/08/04 01:27:47;;;;;;;7.43;4.90;;;;;;;17.29;91.09;99129.28;5075233;28;20209;-73
2021/08/04 01:30:14;;;;;;;5.30;4.50;;;;;;;17.28;91.49;99129.47;5075277;28;20284;-72
2021/08/04 01:32:41;;;;;;;5.10;4.63;;;;;;;17.18;92.38;99124.00;5074750;28;20223;-72
2021/08/04 01:35:09;;;;;;;5.45;4.65;;;;;;;17.32;92.20;99127.28;5056824;28;20192;-73
2021/08/04 01:37:37;;;;;;;5.10;4.60;;;;;;;17.39;91.66;99131.16;5074094;28;20189;-72
2021/08/04 01:40:07;;;;;;;6.93;4.63;;;;;;;17.23;92.50;99134.44;5074249;28;20203;-73
2021/08/04 01:42:36;;;;;;;6.20;4.95;;;;;;;17.17;92.42;99127.72;5073937;28;20193;-72
2021/08/04 01:45:06;;;;;;;5.03;4.50;;;;;;;17.23;92.80;99121.72;5074211;28;20200;-73
2021/08/04 01:47:34;;;;;;;6.53;4.55;;;;;;;17.23;92.38;99132.59;5073332;28;20674;-73
2021/08/04 01:50:02;;;;;;;7.65;5.03;;;;;;;17.24;92.44;99120.72;5070872;28;20219;-72
2021/08/04 01:52:29;;;;;;;5.15;4.70;;;;;;;17.15;92.83;99123.44;5074174;28;20295;-71
2021/08/04 01:54:57;;;;;;;11.45;5.45;;;;;;;17.04;93.67;99122.56;5074029;28;20281;-72
2021/08/04 01:57:23;;;;;;;5.97;5.00;;;;;;;17.12;94.08;99118.25;5074200;28;20275;-72
2021/08/04 01:59:50;;;;;;;8.00;5.55;;;;;;;17.19;93.27;99122.16;5074435;28;20185;-72
2021/08/04 02:02:21;;;;;;;7.55;5.40;;;;;;;17.02;93.73;99113.69;5073919;28;20284;-72
2021/08/04 02:04:48;;;;;;;5.82;5.25;;;;;;;17.05;94.61;99110.69;5074442;28;20200;-73
2021/08/04 02:07:32;;;;;;;5.20;4.68;;;;;;;17.24;93.44;99117.13;5060705;28;20207;-73
2021/08/04 02:10:03;;;;;;;7.43;6.10;;;;;;;17.19;94.19;99114.84;5073452;28;20227;-72
2021/08/04 02:12:31;;;;;;;6.40;5.70;;;;;;;17.20;93.68;99112.97;5074248;28;20213;-73
2021/08/04 02:15:01;;;;;;;5.03;4.57;;;;;;;17.26;93.62;99107.81;5074494;28;20284;-72
2021/08/04 02:17:35;;;;;;;5.43;4.93;;;;;;;17.40;92.58;99114.69;5073821;28;20256;-72
2021/08/04 02:20:08;;;;;;;5.93;4.68;;;;;;;17.43;93.11;99106.22;5073682;28;20194;-72
2021/08/04 02:22:38;;;;;;;6.55;5.60;;;;;;;17.35;92.33;99105.25;5073505;28;20234;-72
2021/08/04 02:25:11;;;;;;;8.20;5.47;;;;;;;17.20;93.64;99102.09;5073575;28;20189;-74
2021/08/04 02:27:39;;;;;;;9.32;5.90;;;;;;;17.21;93.59;99099.25;5073803;28;20242;-74
2021/08/04 02:30:08;;;;;;;6.30;4.80;;;;;;;17.17;94.29;99103.25;5073537;28;20193;-72
2021/08/04 02:32:37;;;;;;;9.32;5.53;;;;;;;16.93;95.00;99098.22;5053215;28;20212;-72
2021/08/04 02:35:05;;;;;;;9.80;5.97;;;;;;;16.80;96.90;99100.34;5055236;28;20192;-74
2021/08/04 02:37:32;;;;;;;6.07;5.47;;;;;;;16.85;96.27;99096.22;5073618;28;20641;-72
2021/08/04 02:39:59;;;;;;;5.88;5.28;;;;;;;16.75;97.68;99100.75;5073726;28;20189;-73
2021/08/04 02:42:26;;;;;;;8.85;5.45;;;;;;;16.70;97.45;99094.88;5073569;28;20191;-74
2021/08/04 02:44:53;;;;;;;8.35;5.63;;;;;;;16.85;96.85;99101.66;5073501;28;20673;-72
2021/08/04 02:47:20;;;;;;;11.38;5.97;;;;;;;16.84;96.83;99099.06;5073525;28;20193;-74
2021/08/04 02:49:48;;;;;;;7.57;6.15;;;;;;;16.94;96.38;99096.38;5073364;28;20281;-72
2021/08/04 02:52:18;;;;;;;7.30;6.40;;;;;;;16.99;95.21;99099.53;5073192;28;20199;-72
2021/08/04 02:54:45;;;;;;;8.30;6.05;;;;;;;17.06;94.54;99103.38;5073342;28;20284;-72
2021/08/04 02:57:11;;;;;;;6.63;5.78;;;;;;;17.05;93.91;99099.81;5073596;28;20200;-73
2021/08/04 02:59:38;;;;;;;5.97;5.38;;;;;;;17.09;93.90;99111.25;5073092;28;20272;-73
2021/08/04 03:02:05;;;;;;;7.68;5.10;;;;;;;16.99;93.63;99102.25;5073203;28;20199;-72
2021/08/04 03:04:32;;;;;;;8.25;5.75;;;;;;;17.12;93.40;99099.22;5073804;28;20191;-72
2021/08/04 03:07:00;;;;;;;7.05;4.90;;;;;;;17.07;93.31;99107.81;5073449;28;20202;-72
2021/08/04 03:09:26;;;;;;;6.13;4.85;;;;;;;17.07;93.26;99103.25;5065238;28;20192;-72
2021/08/04 03:11:53;;;;;;;7.63;6.10;;;;;;;16.96;94.06;99099.78;5073515;28;20502;-72
2021/08/04 03:14:19;;;;;;;6.40;5.47;;;;;;;16.85;94.68;99109.81;5073853;28;20224;-72
2021/08/04 03:16:46;;;;;;;8.10;6.10;;;;;;;16.96;93.69;99106.13;5073131;28;20251;-73
2021/08/04 03:19:13;;;;;;;5.90;5.30;;;;;;;17.16;92.95;99104.22;5073381;28;20238;-72
2021/08/04 03:21:40;;;;;;;6.53;5.80;;;;;;;17.16;93.39;99111.53;5073143;28;20651;-72
2021/08/04 03:24:08;;;;;;;6.40;5.80;;;;;;;17.26;92.10;99107.81;5072756;28;20272;-73
2021/08/04 03:26:35;;;;;;;7.45;5.82;;;;;;;17.20;93.60;99104.81;5073005;28;20203;-72
2021/08/04 03:29:02;;;;;;;6.88;6.18;;;;;;;17.35;90.88;99113.41;5073290;28;20679;-72
2021/08/04 03:31:28;;;;;;;6.20;5.60;;;;;;;17.34;89.63;99115.25;5073180;28;20185;-72
2021/08/04 03:33:55;;;;;;;8.80;5.53;;;;;;;17.32;90.70;99111.84;5072581;28;20223;-71
2021/08/04 03:36:24;;;;;;;7.35;6.05;;;;;;;17.30;89.99;99111.97;5066334;28;20557;-71
2021/08/04 03:38:50;;;;;;;6.82;5.45;;;;;;;17.27;90.49;99103.25;5072907;28;20185;-72
2021/08/04 03:41:18;;;;;;;6.80;6.20;;;;;;;17.29;90.66;99110.25;5073303;28;20181;-73
2021/08/04 03:43:45;;;;;;;6.35;5.53;;;;;;;17.18;89.12;99112.25;5072965;28;20197;-73
2021/08/04 03:46:11;;;;;;;7.35;5.50;;;;;;;17.17;88.82;99105.13;5076009;28;20199;-72
2021/08/04 03:48:38;;;;;;;5.63;4.95;;;;;;;17.29;87.95;99109.41;5075806;28;20276;-72
2021/08/04 03:51:05;;;;;;;5.10;4.60;;;;;;;17.27;88.34;99119.56;5076321;28;20203;-71
2021/08/04 03:53:32;;;;;;;6.57;5.82;;;;;;;17.21;88.29;99117.44;5076528;28;20232;-72
2021/08/04 03:55:58;;;;;;;5.82;4.90;;;;;;;17.13;88.38;99118.13;5076867;28;20276;-73
2021/08/04 03:58:26;;;;;;;6.03;5.28;;;;;;;16.97;88.83;99115.13;5076498;28;20200;-72
2021/08/04 04:00:53;;;;;;;6.72;4.90;;;;;;;16.89;89.17;99113.09;5076439;28;20280;-73
2021/08/04 04:03:19;;;;;;;9.70;5.07;;;;;;;16.83;90.12;99108.25;5076705;28;20268;-72
2021/08/04 04:05:46;;;;;;;6.30;5.40;;;;;;;17.02;90.21;99112.81;5076051;28;20192;-72
2021/08/04 04:08:13;;;;;;;6.00;5.20;;;;;;;17.02;89.65;99110.97;5076756;28;20620;-73
2021/08/04 04:10:40;;;;;;;6.22;5.07;;;;;;;17.08;87.86;99117.72;5076172;28;20199;-72
2021/08/04 04:13:06;;;;;;;5.80;5.00;;;;;;;17.01;88.83;99114.69;5076270;28;20297;-72
2021/08/04 04:15:34;;;;;;;6.60;5.25;;;;;;;16.80;90.14;99114.81;5075945;28;20495;-73
2021/08/04 04:18:01;;;;;;;6.25;5.65;;;;;;;16.73;90.88;99112.75;5055886;28;20229;-71
2021/08/04 04:20:27;;;;;;;9.05;5.78;;;;;;;16.71;91.27;99115.63;5074041;28;20276;-73
2021/08/04 04:22:54;;;;;;;6.00;5.40;;;;;;;16.85;89.71;99122.56;5075659;28;20291;-72
2021/08/04 04:25:21;;;;;;;6.80;5.30;;;;;;;16.98;89.27;99120.44;5075485;28;20181;-71
2021/08/04 04:27:48;;;;;;;5.70;4.80;;;;;;;16.91;87.55;99126.56;5076071;28;20634;-73
2021/08/04 04:30:14;;;;;;;7.65;5.10;;;;;;;16.98;87.86;99130.44;5075827;28;20303;-72
2021/08/04 04:32:43;;;;;;;11.43;5.22;;;;;;;16.84;87.65;99132.53;5075953;28;20280;-72
2021/08/04 04:35:10;;;;;;;6.32;4.85;;;;;;;16.84;87.97;99126.25;5075862;28;20645;-72
2021/08/04 04:37:36;;;;;;;6.22;5.00;;;;;;;17.00;87.22;99126.56;5075834;28;20630;-72
2021/08/04 04:40:06;;;;;;;9.35;5.13;;;;;;;16.86;86.77;99118.81;5075555;28;20668;-72
2021/08/04 04:42:33;;;;;;;6.32;5.15;;;;;;;16.80;86.73;99125.69;5075966;28;20189;-71
2021/08/04 04:45:00;;;;;;;5.90;5.18;;;;;;;16.75;88.15;99127.91;5075344;28;20203;-72
2021/08/04 04:47:26;;;;;;;7.38;5.45;;;;;;;17.07;86.82;99121.41;5075341;28;20575;-72
2021/08/04 04:49:54;;;;;;;9.02;5.07;;;;;;;17.09;85.10;99131.19;5075553;28;20230;-73
2021/08/04 04:52:21;;;;;;;6.07;4.93;;;;;;;16.99;85.58;99124.00;5073308;28;20553;-72
2021/08/04 04:54:48;;;;;;;5.68;4.70;;;;;;;16.77;86.42;99131.38;5074758;28;20292;-73
2021/08/04 04:57:14;;;;;;;8.93;4.97;;;;;;;16.75;86.38;99127.91;5075137;28;20676;-73
2021/08/04 04:59:41;;;;;;;7.00;4.93;;;;;;;16.67;87.85;99122.34;5075180;28;20291;-72
2021/08/04 05:02:07;;;;;;;5.85;4.30;;;;;;;16.61;86.60;99125.63;5075633;28;20501;-72
2021/08/04 05:04:34;;;;;;;4.75;4.30;;;;;;;16.77;86.73;99127.78;5075216;28;20189;-73
2021/08/04 05:07:02;;;;;;;6.65;5.40;;;;;;;16.77;86.26;99123.22;5074884;28;20695;-72
2021/08/04 05:09:28;;;;;;;6.97;5.07;;;;;;;16.78;85.97;99129.50;5075020;28;20188;-72
2021/08/04 05:11:55;;;;;;;5.68;5.18;;;;;;;16.82;86.30;99125.53;5074705;28;20229;-71
2021/08/04 05:14:22;;;;;;;6.13;4.20;;;;;;;16.72;85.68;99122.78;5074729;28;20314;-71
2021/08/04 05:16:48;;;;;;;5.50;5.00;;;;;;;16.98;85.27;99119.53;5074798;28;20279;-71
2021/08/04 05:19:15;;;;;;;5.68;5.07;;;;;;;17.13;85.08;99126.28;5075047;28;20235;-72
2021/08/04 05:21:41;;;;;;;7.13;4.50;;;;;;;17.18;82.75;99131.31;5074585;28;20197;-72
2021/08/04 05:24:09;;;;;;;5.30;4.78;;;;;;;16.92;83.26;99131.88;5074171;28;20185;-72
2021/08/04 05:26:36;;;;;;;5.93;5.32;;;;;;;17.15;83.39;99137.88;5074782;28;20268;-73
2021/08/04 05:29:03;;;;;;;5.80;4.78;;;;;;;17.26;83.05;99132.31;5074379;28;20234;-73
2021/08/04 05:31:29;;;;;;;6.50;4.65;;;;;;;17.19;81.91;99136.59;5074459;28;20223;-74
2021/08/04 05:33:56;;;;;;;5.40;4.40;;;;;;;17.23;81.45;99132.59;5073976;28;20208;-72
2021/08/04 05:36:22;;;;;;;7.15;5.22;;;;;;;17.39;81.21;99142.03;5073768;28;20233;-72
2021/08/04 05:38:49;;;;;;;4.80;4.30;;;;;;;17.39;79.72;99142.03;5074336;28;20225;-73
2021/08/04 05:41:17;;;;;;;6.28;4.93;;;;;;;17.45;80.31;99136.88;5074471;28;20227;-73
2021/08/04 05:43:44;;;;;;;5.13;4.63;;;;;;;17.32;80.03;99143.63;5074016;28;20271;-73
2021/08/04 05:46:10;;;;;;;12.25;5.57;;;;;;;17.50;80.89;99133.72;5074107;28;20276;-72
2021/08/04 05:48:37;;;;;;;6.43;4.63;;;;;;;17.70;79.80;99123.66;5073753;28;20189;-73
2021/08/04 05:51:03;;;;;;;6.07;4.80;;;;;;;17.81;79.01;99131.69;5074332;28;20208;-73
2021/08/04 05:53:30;;;;;;;11.48;10.57;;;;;;;17.87;78.61;99133.00;5073773;28;20215;-72
2021/08/04 05:55:56;;;;;;;5.72;4.97;;;;;;;17.98;78.65;99135.53;5074086;28;20192;-72
2021/08/04 05:58:24;;;;;;;6.20;4.80;;;;;;;18.10;77.03;99126.19;5073417;28;20200;-72
2021/08/04 06:00:51;;;;;;;7.00;5.30;;;;;;;18.13;76.50;99131.34;5073907;28;20273;-73
2021/08/04 06:03:17;;;;;;;5.25;4.75;;;;;;;18.08;76.97;99133.63;5073032;28;20201;-72
2021/08/04 06:05:44;;;;;;;5.00;4.50;;;;;;;18.09;75.67;99126.31;5073516;28;20185;-74
2021/08/04 06:08:13;;;;;;;5.13;4.50;;;;;;;18.20;75.00;99130.72;5072828;28;20201;-73
2021/08/04 06:10:39;;;;;;;5.13;4.53;;;;;;;18.26;75.30;99127.41;5074187;28;20298;-72
2021/08/04 06:13:06;;;;;;;4.95;4.55;;;;;;;18.44;74.17;99128.31;5073688;28;20189;-72
2021/08/04 06:15:34;;;;;;;5.15;4.45;;;;;;;18.61;72.99;99129.41;5073559;28;20213;-73
2021/08/04 06:18:01;;;;;;;5.93;4.00;;;;;;;18.79;72.37;99136.78;5073315;28;20226;-73
2021/08/04 06:20:27;;;;;;;5.15;4.65;;;;;;;18.97;70.42;99132.19;5073882;28;20206;-72
2021/08/04 06:22:54;;;;;;;7.70;5.75;;;;;;;19.01;70.85;99135.50;5073371;28;20199;-72
2021/08/04 06:25:21;;;;;;;6.50;4.68;;;;;;;19.00;70.83;99136.53;5073566;28;20685;-72
2021/08/04 06:27:48;;;;;;;5.55;4.53;;;;;;;18.84;71.24;99148.97;5073431;28;20274;-72
2021/08/04 06:30:15;;;;;;;6.40;4.63;;;;;;;18.96;71.36;99144.16;5073041;28;20195;-73
2021/08/04 06:32:43;;;;;;;6.15;4.55;;;;;;;18.50;72.04;99149.53;5073414;28;20680;-73
2021/08/04 06:35:10;;;;;;;6.03;4.20;;;;;;;18.49;72.21;99153.25;5073579;28;20753;-73
2021/08/04 06:37:37;;;;;;;6.25;4.65;;;;;;;18.57;72.32;99149.81;5073229;28;20182;-73
2021/08/04 06:40:05;;;;;;;6.68;5.40;;;;;;;18.92;71.59;99137.28;5073604;28;20301;-71
2021/08/04 06:42:32;;;;;;;5.50;4.10;;;;;;;19.11;70.38;99139.88;5073546;28;20212;-72
2021/08/04 06:44:58;;;;;;;6.60;4.45;;;;;;;18.67;72.42;99139.69;5072969;28;20202;-73
2021/08/04 06:47:25;;;;;;;6.40;4.95;;;;;;;18.78;73.04;99135.94;5073332;28;20281;-72
2021/08/04 06:49:53;;;;;;;7.28;4.10;;;;;;;18.64;71.79;99139.16;5072842;28;20191;-72
2021/08/04 06:52:19;;;;;;;6.38;4.38;;;;;;;18.94;70.23;99141.56;5073192;28;20222;-70
2021/08/04 06:54:46;;;;;;;5.63;5.05;;;;;;;19.05;70.06;99135.03;5073258;28;20239;-73
2021/08/04 06:57:13;;;;;;;4.80;4.30;;;;;;;18.89;70.09;99138.44;5072698;28;20530;-73
2021/08/04 06:59:39;;;;;;;4.82;4.32;;;;;;;19.31;68.38;99146.03;5072610;28;20212;-71
2021/08/04 07:02:06;;;;;;;6.30;4.50;;;;;;;19.30;68.71;99148.91;5073244;28;20294;-70
2021/08/04 07:04:33;;;;;;;5.00;4.50;;;;;;;19.40;68.22;99152.41;5072782;28;20620;-73
2021/08/04 07:07:03;;;;;;;5.65;4.45;;;;;;;19.18;67.04;99159.22;5072741;28;20277;-71
2021/08/04 07:09:33;;;;;;;5.47;4.15;;;;;;;18.94;67.04;99168.00;5073364;28;20192;-73
2021/08/04 07:12:02;;;;;;;4.55;4.15;;;;;;;19.16;67.02;99173.00;5073236;28;20505;-72
2021/08/04 07:14:28;;;;;;;4.72;4.30;;;;;;;19.30;67.01;99174.34;5076775;28;20647;-72
2021/08/04 07:16:55;;;;;;;7.55;5.38;;;;;;;19.28;67.03;99168.16;5072799;28;20245;-72
2021/08/04 07:19:21;;;;;;;5.22;4.10;;;;;;;19.48;66.22;99160.69;5073759;28;20227;-72
2021/08/04 07:21:48;;;;;;;5.63;4.68;;;;;;;19.28;67.23;99165.44;5076420;28;20665;-72
2021/08/04 07:24:16;;;;;;;6.35;4.65;;;;;;;19.15;67.92;99157.66;5076235;28;20278;-73
2021/08/04 07:26:43;;;;;;;6.60;4.55;;;;;;;19.14;67.97;99168.72;5075943;28;20191;-72
2021/08/04 07:29:11;;;;;;;7.88;4.90;;;;;;;19.56;67.06;99166.25;5076989;28;20200;-72
2021/08/04 07:31:40;;;;;;;7.55;4.45;;;;;;;19.14;65.57;99157.81;5076976;28;20190;-71
2021/08/04 07:34:08;;;;;;;7.50;5.20;;;;;;;18.72;69.19;99164.66;5076483;28;20303;-73
2021/08/04 07:36:35;;;;;;;5.97;4.47;;;;;;;18.58;70.49;99165.13;5077289;28;20287;-73
2021/08/04 07:39:02;;;;;;;4.40;4.00;;;;;;;18.72;70.38;99161.03;5076347;28;20207;-72
2021/08/04 07:41:30;;;;;;;4.60;3.88;;;;;;;18.78;69.93;99162.34;5076197;28;20188;-72
2021/08/04 07:43:57;;;;;;;5.07;4.63;;;;;;;19.16;69.05;99156.63;5076567;28;20191;-73
2021/08/04 07:46:24;;;;;;;5.65;4.40;;;;;;;19.16;67.66;99153.06;5076531;28;20256;-72
2021/08/04 07:48:50;;;;;;;4.97;4.47;;;;;;;19.13;67.66;99153.34;5076635;28;20206;-72
2021/08/04 07:51:17;;;;;;;7.43;5.03;;;;;;;19.23;68.89;99156.03;5076371;28;20188;-71
2021/08/04 07:53:44;;;;;;;5.47;3.83;;;;;;;19.68;67.44;99153.19;5065178;28;20199;-71
2021/08/04 07:56:11;;;;;;;5.78;4.50;;;;;;;19.97;65.88;99149.34;5076190;28;20299;-71
2021/08/04 07:58:39;;;;;;;6.55;5.85;;;;;;;20.67;62.08;99153.84;5076101;28;20197;-72
2021/08/04 08:01:06;;;;;;;6.00;4.35;;;;;;;21.24;59.92;99145.81;5076006;28;20187;-73
2021/08/04 08:03:33;;;;;;;5.10;4.70;;;;;;;21.50;58.26;99142.09;5076678;28;20591;-72
2021/08/04 08:06:00;;;;;;;5.10;3.70;;;;;;;21.45;56.16;99137.97;5075910;28;20452;-71
2021/08/04 08:08:26;;;;;;;4.00;3.70;;;;;;;20.74;56.88;99133.88;5076139;28;20442;-71
2021/08/04 08:10:53;;;;;;;4.33;3.70;;;;;;;20.22;58.90;99130.38;5075926;28;20513;-72
2021/08/04 08:13:20;;;;;;;4.87;3.77;;;;;;;20.46;58.16;99132.34;5075866;28;20534;-70
2021/08/04 08:15:49;;;;;;;3.97;3.57;;;;;;;20.86;56.12;99122.63;5075819;28;20467;-72
2021/08/04 08:18:15;;;;;;;4.83;3.83;;;;;;;21.02;56.29;99130.88;5075451;28;20474;-72
2021/08/04 08:20:43;;;;;;;4.30;3.60;;;;;;;20.85;56.37;99124.50;5076086;28;20926;-71
2021/08/04 08:23:11;;;;;;;4.53;3.90;;;;;;;21.07;56.77;99130.38;5075363;28;20450;-71
2021/08/04 08:25:39;;;;;;;6.22;3.90;;;;;;;21.03;55.36;99138.06;5076013;28;20446;-72
2021/08/04 08:28:09;;;;;;;5.20;3.80;;;;;;;21.21;54.09;99125.09;5075720;28;20676;-72
2021/08/04 08:30:37;;;;;;;3.80;3.30;;;;;;;21.65;51.29;99135.75;5075317;28;20514;-72
2021/08/04 08:33:06;;;;;;;3.90;3.53;;;;;;;21.65;52.46;99121.22;5075163;28;20514;-71
2021/08/04 08:35:32;;;;;;;4.37;3.93;;;;;;;21.54;54.41;99130.63;5075240;28;20964;-73
2021/08/04 08:37:59;;;;;;;5.33;4.40;;;;;;;21.01;56.82;99138.22;5076211;28;20754;-72
2021/08/04 08:40:26;;;;;;;4.83;4.23;;;;;;;20.80;57.86;99129.59;5075652;28;20792;-72
2021/08/04 08:42:54;;;;;;;4.80;4.30;;;;;;;20.35;59.10;99134.38;5075386;28;20975;-71
2021/08/04 08:45:21;;;;;;;4.90;4.23;;;;;;;20.64;58.34;99130.41;5071767;28;20515;-72
2021/08/04 08:47:48;;;;;;;6.53;5.60;;;;;;;20.67;58.37;99129.22;5075359;28;20464;-72
2021/08/04 08:50:18;;;;;;;6.63;4.70;;;;;;;20.92;57.02;99122.81;5075304;28;20481;-73
2021/08/04 08:52:48;;;;;;;6.03;4.93;;;;;;;21.17;56.13;99125.59;5075235;28;20525;-71
2021/08/04 08:55:15;;;;;;;4.67;3.83;;;;;;;21.06;55.85;99124.03;5075221;28;20884;-72
2021/08/04 08:57:42;;;;;;;4.90;4.00;;;;;;;20.95;54.48;99116.16;5075150;28;20452;-73
2021/08/04 09:00:10;;;;;;;5.33;3.90;;;;;;;21.18;54.08;99124.56;5075283;28;20439;-72
2021/08/04 09:02:37;;;;;;;4.73;3.30;;;;;;;21.34;52.99;99116.38;5075284;28;20897;-73
2021/08/04 09:05:07;;;;;;;6.80;3.70;;;;;;;21.72;51.90;99114.00;5075145;28;20431;-72
2021/08/04 09:07:36;;;;;;;6.03;4.17;;;;;;;22.15;51.12;99117.34;5075069;28;20846;-71
2021/08/04 09:10:19;;;;;;;4.23;3.83;;;;;;;22.44;50.73;99115.94;5074614;28;20450;-72
2021/08/04 09:12:47;;;;;;;9.73;7.60;;;;;;;22.09;51.59;99118.06;5075450;28;20768;-72
2021/08/04 09:15:24;;;;;;;5.13;4.63;;;;;;;22.31;51.65;99112.91;5074722;28;20479;-72
2021/08/04 09:17:58;;;;;;;7.20;4.57;;;;;;;22.75;50.33;99104.13;5074571;28;21062;-73
2021/08/04 09:20:27;;;;;;;4.80;4.40;;;;;;;;;;5074459;28;20462;-72
2021/08/04 09:23:00;;;;;;;6.07;4.60;;;;;;;22.83;49.75;99104.09;5074068;28;20526;-72
2021/08/04 09:25:27;;;;;;;7.07;4.20;;;;;;;22.97;48.91;99100.56;5074186;28;20518;-71
2021/08/04 09:27:55;;;;;;;4.40;4.00;;;;;;;22.79;48.80;99095.34;5074472;28;20786;-71
2021/08/04 09:30:25;;;;;;;4.90;3.30;;;;;;;22.34;49.95;99107.03;5074203;28;20783;-71
2021/08/04 09:32:53;;;;;;;3.60;3.30;;;;;;;22.34;49.51;99104.31;5073484;28;20463;-71
2021/08/04 09:35:23;;;;;;;3.67;2.87;;;;;;;22.48;48.56;99098.94;5074082;28;20473;-72
2021/08/04 09:37:50;;;;;;;4.27;3.27;;;;;;;22.31;48.10;99093.69;5074277;28;20533;-72
2021/08/04 09:40:21;;;;;;;5.27;4.17;;;;;;;22.42;49.60;99082.34;5074863;28;20892;-71
2021/08/04 09:42:52;;;;;;;4.63;3.47;;;;;;;22.81;48.16;99085.06;5073837;28;20901;-71
2021/08/04 09:45:21;;;;;;;6.33;3.50;;;;;;;23.01;47.41;99088.22;5074616;28;20485;-71
2021/08/04 09:48:07;;;;;;;3.80;3.20;;;;;;;22.79;46.57;99086.28;5074463;28;20594;-72
2021/08/04 09:50:50;;;;;;;3.70;2.93;;;;;;;22.38;47.25;99090.06;5074830;28;20423;-71
2021/08/04 09:53:23;;;;;;;5.37;3.10;;;;;;;22.18;47.06;99081.38;5074328;28;20423;-71
2021/08/04 09:56:12;;;;;;;3.30;2.87;;;;;;;22.45;47.70;99087.47;5074233;28;20517;-72
2021/08/04 09:58:43;;;;;;;4.30;3.80;;;;;;;22.73;46.78;99082.38;5074259;28;20502;-70
2021/08/04 10:01:12;;;;;;;4.00;3.27;;;;;;;22.64;46.80;99080.72;5074083;28;20439;-72
2021/08/04 10:04:01;;;;;;;5.03;3.60;;;;;;;22.84;46.61;99081.13;5091128;27;20537;-71
2021/08/04 10:06:29;;;;;;;4.20;3.77;;;;;;;22.69;45.63;99084.59;5090912;28;20544;-72
2021/08/04 10:08:57;;;;;;;4.70;3.33;;;;;;;22.50;45.91;99085.06;5091024;28;20434;-71
2021/08/04 10:11:24;;;;;;;3.40;2.80;;;;;;;22.71;46.45;99083.59;5091159;28;20825;-72
2021/08/04 10:13:52;;;;;;;4.60;3.80;;;;;;;22.89;46.70;99078.69;5090614;28;20461;-71
2021/08/04 10:16:19;;;;;;;3.53;3.20;;;;;;;22.21;48.20;99070.09;5091093;28;20427;-72
2021/08/04 10:18:46;;;;;;;3.77;3.00;;;;;;;22.59;47.64;99059.28;5090911;28;20438;-72
2021/08/04 10:21:16;;;;;;;4.50;3.80;;;;;;;23.21;46.40;99055.66;5091022;28;20422;-72
2021/08/04 10:23:47;;;;;;;3.40;3.10;;;;;;;23.05;47.37;99050.28;5090370;28;20485;-72
2021/08/04 10:26:16;;;;;;;4.03;3.63;;;;;;;23.01;47.27;99041.56;5090438;28;20521;-71
2021/08/04 10:28:44;;;;;;;4.37;3.43;;;;;;;23.75;45.89;99046.44;5090109;28;20934;-72
2021/08/04 10:31:14;;;;;;;4.13;3.73;;;;;;;23.99;44.70;99041.72;5090747;28;20484;-72
2021/08/04 10:33:41;;;;;;;4.33;3.90;;;;;;;24.16;45.26;99040.50;5090428;28;20415;-71
2021/08/04 10:36:13;;;;;;;4.83;4.43;;;;;;;24.56;44.09;99038.31;5090603;28;20537;-71
2021/08/04 10:38:44;;;;;;;3.20;2.70;;;;;;;24.49;43.60;99029.97;5090095;28;20483;-70
2021/08/04 10:41:13;;;;;;;7.23;3.93;;;;;;;24.59;44.17;99037.91;5089835;28;20460;-72
2021/08/04 10:43:43;;;;;;;4.43;4.03;;;;;;;24.71;44.75;99041.84;5090520;28;20971;-72
2021/08/04 10:46:39;;;;;;;3.60;3.30;;;;;;;24.70;44.57;99039.31;5090104;28;20433;-72
2021/08/04 10:49:27;;;;;;;3.60;3.10;;;;;;;24.72;44.45;99038.06;5090151;28;20453;-71
2021/08/04 10:52:16;;;;;;;4.20;3.40;;;;;;;24.64;44.07;99035.41;5090190;28;20473;-72
2021/08/04 10:55:07;;;;;;;5.63;3.80;;;;;;;24.51;44.18;99024.25;5089808;28;20469;-73
2021/08/04 10:57:36;;;;;;;4.53;3.03;;;;;;;24.28;43.29;99030.69;5090069;28;20465;-72
2021/08/04 11:00:20;;;;;;;2.93;2.73;;;;;;;23.65;44.37;99029.31;5090010;28;20452;-71
2021/08/04 11:02:47;;;;;;;3.73;3.40;;;;;;;23.77;44.38;99032.53;5089702;28;20563;-72
2021/08/04 11:05:14;;;;;;;4.27;3.80;;;;;;;23.81;45.53;99028.34;5089754;28;20472;-71
2021/08/04 11:08:17;;;;;;;4.30;3.90;;;;;;;24.02;45.34;99035.84;5089803;28;20493;-72
2021/08/04 11:10:46;;;;;;;4.57;3.60;;;;;;;23.79;45.59;99035.91;5089331;28;20438;-73
2021/08/04 11:13:13;;;;;;;3.70;3.40;;;;;;;23.70;46.36;99032.38;5086783;28;20445;-72
2021/08/04 11:15:42;;;;;;;4.83;3.10;;;;;;;23.74;46.51;99025.44;5075508;28;20470;-71
2021/08/04 11:18:13;;;;;;;5.10;3.57;;;;;;;23.81;46.41;99026.47;5075557;28;20449;-73
2021/08/04 11:21:10;;;;;;;6.60;3.30;;;;;;;24.03;46.01;99023.81;5075714;28;20426;-73
2021/08/04 11:23:45;;;;;;;4.30;3.90;;;;;;;24.39;45.27;99020.25;5076455;28;20576;-72
2021/08/04 11:26:31;;;;;;;3.40;3.10;;;;;;;24.68;44.48;99014.72;5075886;28;20445;-71
2021/08/04 11:28:59;;;;;;;3.60;3.30;;;;;;;25.04;43.51;99015.75;5076027;28;20422;-72
2021/08/04 11:31:26;;;;;;;4.17;3.77;;;;;;;25.25;42.67;99014.91;5076083;28;20419;-73
2021/08/04 11:33:53;;;;;;;3.73;3.43;;;;;;;25.13;43.18;99023.66;5075511;28;20936;-72
2021/08/04 11:36:26;;;;;;;4.33;3.43;;;;;;;25.38;42.59;99026.03;5075261;28;20841;-74
2021/08/04 11:39:05;;;;;;;4.07;3.67;;;;;;;25.57;41.63;99025.38;5075877;28;20783;-72
2021/08/04 11:41:39;;;;;;;3.80;2.63;;;;;;;25.50;41.15;99029.09;5075153;28;20525;-72